Time;durP1;ratioP1;P1;durP2;ratioP2;P2;SDS_P1;SDS_P2;PMS_P1;PMS_P2;Temp;Humidity;BMP_temperature;BMP_pressure;BME280_temperature;BME280_humidity;BME280_pressure;Samples;Min_cycle;Max_cycle;Signal;HPM_P1;HPM_P2
2024/04/18 00:00:04;;;;;;;3.22;0.75;;;6.30;99.90;;;;;;5381741;26;20000;-79
2024/04/18 00:02:29;;;;;;;2.53;0.60;;;6.20;99.90;;;;;;5379445;26;20004;-79
2024/04/18 00:04:55;;;;;;;2.10;0.70;;;6.20;99.90;;;;;;5378619;26;19996;-79
2024/04/18 00:07:20;;;;;;;2.88;0.85;;;6.20;99.90;;;;;;5367698;26;20008;-79
2024/04/18 00:09:46;;;;;;;2.47;1.05;;;6.20;99.90;;;;;;5380303;26;20012;-79
2024/04/18 00:12:11;;;;;;;3.80;1.08;;;6.20;99.90;;;;;;5371218;26;20465;-79
2024/04/18 00:14:37;;;;;;;3.67;1.30;;;6.20;99.90;;;;;;5365960;26;20019;-79
2024/04/18 00:17:03;;;;;;;2.97;1.10;;;6.20;99.90;;;;;;5380365;26;20056;-79
2024/04/18 00:19:28;;;;;;;3.35;1.00;;;6.20;99.90;;;;;;5379400;26;20007;-79
2024/04/18 00:21:54;;;;;;;2.22;1.00;;;6.20;99.90;;;;;;5379249;26;20004;-79
2024/04/18 00:24:20;;;;;;;1.90;0.93;;;6.10;99.90;;;;;;5346489;26;20016;-79
2024/04/18 00:26:45;;;;;;;3.65;0.88;;;6.10;99.90;;;;;;5365890;26;20348;-79
2024/04/18 00:29:11;;;;;;;4.50;1.70;;;6.10;99.90;;;;;;5378497;26;20012;-79
2024/04/18 00:31:36;;;;;;;3.00;1.10;;;6.10;99.90;;;;;;5374820;26;19997;-79
2024/04/18 00:34:02;;;;;;;2.50;0.90;;;6.10;99.90;;;;;;5376642;26;20461;-79
2024/04/18 00:36:28;;;;;;;3.42;0.88;;;6.10;99.90;;;;;;5371639;26;20008;-79
2024/04/18 00:38:53;;;;;;;4.03;1.20;;;6.10;99.90;;;;;;5381358;26;20008;-79
2024/04/18 00:41:19;;;;;;;4.72;0.90;;;6.10;99.90;;;;;;5378696;26;19996;-79
2024/04/18 00:43:45;;;;;;;2.38;0.65;;;6.10;99.90;;;;;;5351067;26;20467;-79
2024/04/18 00:46:11;;;;;;;3.05;1.00;;;6.10;99.90;;;;;;5379375;26;20082;-79
2024/04/18 00:48:36;;;;;;;4.22;1.15;;;6.10;99.90;;;;;;5379542;26;20000;-79
2024/04/18 00:51:03;;;;;;;2.92;1.00;;;6.10;99.90;;;;;;5380418;26;20019;-79
2024/04/18 00:53:30;;;;;;;4.47;1.35;;;6.10;99.90;;;;;;5370028;26;20012;-79
2024/04/18 00:55:57;;;;;;;3.83;1.20;;;6.10;99.90;;;;;;5359374;26;20008;-79
2024/04/18 00:58:24;;;;;;;2.97;1.00;;;6.10;99.90;;;;;;5379366;26;20000;-79
2024/04/18 01:00:52;;;;;;;4.00;1.23;;;6.10;99.90;;;;;;5378805;26;19996;-79
2024/04/18 01:03:17;;;;;;;4.22;1.25;;;6.10;99.90;;;;;;5373752;26;20311;-79
2024/04/18 01:05:43;;;;;;;2.28;0.98;;;6.10;99.90;;;;;;5375773;26;20006;-79
2024/04/18 01:08:09;;;;;;;3.15;1.63;;;6.00;99.90;;;;;;5342519;26;20041;-79
2024/04/18 01:10:34;;;;;;;3.13;1.20;;;6.00;99.90;;;;;;5380508;26;20000;-79
2024/04/18 01:13:01;;;;;;;4.07;1.48;;;6.00;99.90;;;;;;5374703;26;20104;-79
2024/04/18 01:15:27;;;;;;;3.25;1.88;;;6.00;99.90;;;;;;5372428;26;20000;-79
2024/04/18 01:17:53;;;;;;;3.72;1.63;;;6.00;99.90;;;;;;5363064;26;20037;-79
2024/04/18 01:20:22;;;;;;;2.75;1.00;;;6.10;99.90;;;;;;5371402;26;19997;-79
2024/04/18 01:22:48;;;;;;;3.22;1.50;;;6.00;99.90;;;;;;5378679;26;20040;-78
2024/04/18 01:25:13;;;;;;;6.82;1.35;;;6.00;99.90;;;;;;5372608;26;19992;-79
2024/04/18 01:27:39;;;;;;;3.83;1.20;;;6.00;99.90;;;;;;5379291;26;20081;-78
2024/04/18 01:30:05;;;;;;;4.63;1.60;;;6.00;99.90;;;;;;5366196;26;20325;-79
2024/04/18 01:32:37;;;;;;;2.70;1.20;;;6.00;99.90;;;;;;5377559;26;20015;-78
2024/04/18 01:35:04;;;;;;;3.83;0.93;;;6.00;99.90;;;;;;5372581;26;20007;-79
2024/04/18 01:37:29;;;;;;;4.22;0.93;;;6.00;99.90;;;;;;5378695;26;20440;-79
2024/04/18 01:39:55;;;;;;;1.67;0.60;;;6.00;99.90;;;;;;5363963;26;20023;-79
2024/04/18 01:42:20;;;;;;;1.98;0.73;;;5.90;99.90;;;;;;5374628;26;20001;-79
2024/04/18 01:44:46;;;;;;;2.92;1.52;;;6.00;99.90;;;;;;5379155;26;20000;-79
2024/04/18 01:47:13;;;;;;;4.38;0.82;;;5.90;99.90;;;;;;5377701;26;20011;-79
2024/04/18 01:49:39;;;;;;;2.70;0.80;;;5.90;99.90;;;;;;5379553;26;20344;-79
2024/04/18 01:52:07;;;;;;;4.22;1.00;;;5.90;99.90;;;;;;5377169;26;20004;-79
2024/04/18 01:54:33;;;;;;;3.65;0.70;;;5.80;99.90;;;;;;5349024;26;20491;-79
2024/04/18 01:56:59;;;;;;;4.75;1.08;;;5.80;99.90;;;;;;5376624;26;20000;-79
2024/04/18 01:59:25;;;;;;;1.75;0.63;;;5.70;99.90;;;;;;5376202;26;19992;-79
2024/04/18 02:01:51;;;;;;;3.83;0.63;;;5.60;99.90;;;;;;5347241;26;20010;-79
2024/04/18 02:04:17;;;;;;;3.70;0.85;;;5.60;99.90;;;;;;5378256;26;20004;-79
2024/04/18 02:06:43;;;;;;;5.10;0.88;;;5.50;99.90;;;;;;5378532;26;20000;-79
2024/04/18 02:09:09;;;;;;;3.15;0.88;;;5.40;99.90;;;;;;5346046;26;20456;-79
2024/04/18 02:11:36;;;;;;;5.00;0.80;;;5.40;99.90;;;;;;5378795;26;20004;-78
2024/04/18 02:14:01;;;;;;;1.65;0.90;;;5.30;99.90;;;;;;5376571;26;20004;-79
2024/04/18 02:16:27;;;;;;;3.08;0.80;;;5.20;99.90;;;;;;5346311;26;20019;-79
2024/04/18 02:18:53;;;;;;;5.03;1.23;;;5.20;99.90;;;;;;5376119;26;20008;-79
2024/04/18 02:21:18;;;;;;;4.32;0.75;;;5.10;99.90;;;;;;5379508;26;20015;-79
2024/04/18 02:23:44;;;;;;;3.85;0.60;;;5.10;99.90;;;;;;5373663;26;20015;-79
2024/04/18 02:26:09;;;;;;;3.72;0.70;;;5.00;99.90;;;;;;5375521;26;20015;-79
2024/04/18 02:28:36;;;;;;;5.22;0.90;;;4.90;99.90;;;;;;5376780;26;20004;-79
2024/04/18 02:31:03;;;;;;;4.40;0.85;;;4.90;99.90;;;;;;5378909;26;20004;-79
2024/04/18 02:33:29;;;;;;;2.78;0.82;;;4.90;99.90;;;;;;5346671;26;20015;-78
2024/04/18 02:35:54;;;;;;;3.03;0.80;;;4.80;99.90;;;;;;5376384;26;19997;-79
2024/04/18 02:38:20;;;;;;;3.58;0.77;;;4.80;99.90;;;;;;5361319;26;20024;-79
2024/04/18 02:40:46;;;;;;;4.32;1.02;;;4.70;99.90;;;;;;5380140;26;20008;-79
2024/04/18 02:43:11;;;;;;;2.65;1.08;;;4.70;99.90;;;;;;5378305;26;20000;-78
2024/04/18 02:45:37;;;;;;;9.45;1.70;;;4.70;99.90;;;;;;5377489;26;20031;-79
2024/04/18 02:48:02;;;;;;;9.63;1.67;;;4.70;99.90;;;;;;5376312;26;19996;-79
2024/04/18 02:50:28;;;;;;;3.53;1.20;;;4.60;99.90;;;;;;5357601;26;19997;-79
2024/04/18 02:52:54;;;;;;;3.28;0.98;;;4.60;99.90;;;;;;5374996;26;20007;-79
2024/04/18 02:55:19;;;;;;;6.80;1.30;;;4.60;99.90;;;;;;5375015;26;20004;-79
2024/04/18 02:57:45;;;;;;;7.47;1.25;;;4.50;99.90;;;;;;5343448;26;20085;-79
2024/04/18 03:00:11;;;;;;;5.50;1.20;;;4.50;99.90;;;;;;5376235;26;20019;-78
2024/04/18 03:02:36;;;;;;;5.15;1.33;;;4.40;99.90;;;;;;5377003;26;19996;-79
2024/04/18 03:05:02;;;;;;;4.65;1.05;;;4.40;99.90;;;;;;5372125;26;20000;-79
2024/04/18 03:07:28;;;;;;;4.15;1.65;;;4.30;99.90;;;;;;5368750;26;19992;-77
2024/04/18 03:09:53;;;;;;;4.60;1.80;;;4.30;99.90;;;;;;5375746;26;20081;-78
2024/04/18 03:12:19;;;;;;;3.58;1.45;;;4.20;99.90;;;;;;5355511;26;19996;-78
2024/04/18 03:14:45;;;;;;;3.40;1.40;;;4.20;99.90;;;;;;5364647;26;20011;-79
2024/04/18 03:17:10;;;;;;;7.40;1.63;;;4.10;99.90;;;;;;5374955;26;20008;-80
2024/04/18 03:19:36;;;;;;;4.63;1.95;;;4.10;99.90;;;;;;5375851;26;20004;-79
2024/04/18 03:22:01;;;;;;;6.07;1.52;;;4.10;99.90;;;;;;5375094;26;20371;-79
2024/04/18 03:24:27;;;;;;;6.70;2.10;;;4.00;99.90;;;;;;5373326;26;20012;-80
2024/04/18 03:26:53;;;;;;;4.70;1.77;;;3.90;99.90;;;;;;5375323;26;19997;-79
2024/04/18 03:29:18;;;;;;;4.45;2.20;;;3.90;99.90;;;;;;5374278;26;20358;-80
2024/04/18 03:31:47;;;;;;;4.13;2.10;;;3.80;99.90;;;;;;5375150;26;20529;-80
2024/04/18 03:34:13;;;;;;;4.70;2.30;;;3.80;99.90;;;;;;5377675;26;20464;-79
2024/04/18 03:36:50;;;;;;;6.97;2.38;;;3.80;99.90;;;;;;5373910;26;20395;-80
2024/04/18 03:39:16;;;;;;;5.80;2.40;;;3.70;99.90;;;;;;5359118;26;20012;-80
2024/04/18 03:41:41;;;;;;;8.98;2.45;;;3.70;99.90;;;;;;5376918;26;20015;-79
2024/04/18 03:44:10;;;;;;;8.45;2.85;;;3.70;99.90;;;;;;5354275;26;20399;-80
2024/04/18 03:46:36;;;;;;;6.57;2.78;;;3.70;99.90;;;;;;5371333;26;20000;-80
2024/04/18 03:49:01;;;;;;;6.55;2.45;;;3.60;99.90;;;;;;5377790;26;20015;-79
2024/04/18 03:51:27;;;;;;;8.07;2.47;;;3.60;99.90;;;;;;5373119;26;19996;-80
2024/04/18 03:53:53;;;;;;;7.55;2.92;;;3.60;99.90;;;;;;5368867;26;20000;-79
2024/04/18 03:56:19;;;;;;;5.88;2.42;;;3.50;99.90;;;;;;5374038;26;20476;-80
2024/04/18 03:58:44;;;;;;;8.35;2.53;;;3.50;99.90;;;;;;5376421;26;20449;-80
2024/04/18 04:01:10;;;;;;;7.07;2.45;;;3.50;99.90;;;;;;5376187;26;19992;-80
2024/04/18 04:03:35;;;;;;;7.50;2.55;;;3.50;99.90;;;;;;5372985;26;20077;-80
2024/04/18 04:06:01;;;;;;;5.07;2.78;;;3.40;99.90;;;;;;5370444;26;20003;-80
2024/04/18 04:08:27;;;;;;;6.78;2.20;;;3.40;99.90;;;;;;5373670;26;20001;-80
2024/04/18 04:10:53;;;;;;;6.10;2.63;;;3.40;99.90;;;;;;5343328;26;20000;-80
2024/04/18 04:13:18;;;;;;;3.58;1.90;;;3.40;99.90;;;;;;5374068;26;20407;-80
2024/04/18 04:15:48;;;;;;;7.13;2.63;;;3.40;99.90;;;;;;5373352;26;20275;-80
2024/04/18 04:18:13;;;;;;;8.00;2.90;;;3.40;99.90;;;;;;5370520;26;20031;-79
2024/04/18 04:20:39;;;;;;;5.43;2.85;;;3.40;99.90;;;;;;5377307;26;20078;-80
2024/04/18 04:23:04;;;;;;;5.28;3.05;;;3.30;99.90;;;;;;5370235;26;20004;-79
2024/04/18 04:25:30;;;;;;;10.25;2.53;;;3.40;99.90;;;;;;5357791;26;20460;-80
2024/04/18 04:27:55;;;;;;;6.78;2.25;;;3.30;99.90;;;;;;5372208;26;20069;-80
2024/04/18 04:30:21;;;;;;;5.90;2.58;;;3.30;99.90;;;;;;5362807;26;20000;-80
2024/04/18 04:32:47;;;;;;;8.23;2.88;;;3.30;99.90;;;;;;5376831;26;19996;-79
2024/04/18 04:35:12;;;;;;;6.60;2.10;;;3.30;99.90;;;;;;5370943;26;20086;-80
2024/04/18 04:37:38;;;;;;;8.00;2.45;;;3.30;99.90;;;;;;5376060;26;19996;-80
2024/04/18 04:40:05;;;;;;;6.18;1.63;;;3.30;99.90;;;;;;5373713;26;20004;-79
2024/04/18 04:42:33;;;;;;;5.68;2.78;;;3.30;99.90;;;;;;5380117;26;20379;-79
2024/04/18 04:44:58;;;;;;;10.98;2.75;;;3.30;99.90;;;;;;5379060;26;20103;-79
2024/04/18 04:47:25;;;;;;;5.18;2.70;;;3.20;99.90;;;;;;5377607;26;20406;-79
2024/04/18 04:49:51;;;;;;;7.05;2.38;;;3.30;99.90;;;;;;5380057;26;20024;-79
2024/04/18 04:52:17;;;;;;;7.03;1.98;;;3.20;99.90;;;;;;5370844;26;20008;-80
2024/04/18 04:54:43;;;;;;;6.60;2.53;;;3.30;99.90;;;;;;5354455;26;20041;-79
2024/04/18 04:57:13;;;;;;;5.10;2.10;;;3.30;99.90;;;;;;5374129;26;20533;-80
2024/04/18 04:59:39;;;;;;;6.07;2.35;;;3.30;99.90;;;;;;5372244;26;20000;-80
2024/04/18 05:02:05;;;;;;;6.00;2.30;;;3.30;99.90;;;;;;5376850;26;20054;-79
2024/04/18 05:04:30;;;;;;;8.13;2.15;;;3.30;99.90;;;;;;5373117;26;19993;-79
2024/04/18 05:06:56;;;;;;;10.07;2.15;;;3.30;99.90;;;;;;5367381;26;19992;-79
2024/04/18 05:09:21;;;;;;;6.38;2.20;;;3.30;99.90;;;;;;5378989;26;20045;-79
2024/04/18 05:11:47;;;;;;;9.65;2.15;;;3.30;99.90;;;;;;5349979;26;20004;-79
2024/04/18 05:14:13;;;;;;;4.32;2.33;;;3.30;99.90;;;;;;5378361;26;20065;-80
2024/04/18 05:16:39;;;;;;;6.22;2.00;;;3.30;99.90;;;;;;5380325;26;20004;-79
2024/04/18 05:19:05;;;;;;;6.75;2.13;;;3.40;99.90;;;;;;5376890;26;20495;-79
2024/04/18 05:21:31;;;;;;;6.05;2.30;;;3.40;99.90;;;;;;5373066;26;20004;-79
2024/04/18 05:23:57;;;;;;;4.95;1.88;;;3.50;99.90;;;;;;5370696;26;20466;-80
2024/04/18 05:26:31;;;;;;;8.45;2.58;;;3.50;99.90;;;;;;5359413;26;20103;-80
2024/04/18 05:31:42;;;;;;;4.35;2.20;;;3.50;99.90;;;;;;5365988;26;20352;-79
2024/04/18 05:34:08;;;;;;;7.18;2.60;;;3.60;99.90;;;;;;5377465;26;19996;-80
2024/04/18 05:36:33;;;;;;;6.72;2.40;;;3.60;99.90;;;;;;5379527;26;20000;-79
2024/04/18 05:38:59;;;;;;;7.18;2.03;;;3.70;99.90;;;;;;5378521;26;20004;-80
2024/04/18 05:41:26;;;;;;;8.77;2.53;;;3.70;99.90;;;;;;5376666;26;20479;-79
2024/04/18 05:43:51;;;;;;;6.80;1.80;;;3.80;99.90;;;;;;5368538;26;20361;-79
2024/04/18 05:46:17;;;;;;;6.35;3.08;;;3.90;99.90;;;;;;5340682;26;20000;-79
2024/04/18 05:48:44;;;;;;;4.43;2.28;;;4.00;99.90;;;;;;5369687;26;20436;-79
2024/04/18 05:51:10;;;;;;;6.50;2.25;;;4.00;99.90;;;;;;5380958;26;20078;-78
2024/04/18 05:53:36;;;;;;;6.63;2.30;;;4.10;99.90;;;;;;5383627;26;20008;-79
2024/04/18 05:56:01;;;;;;;7.88;2.33;;;4.20;99.90;;;;;;5374149;26;20063;-79
2024/04/18 05:58:29;;;;;;;7.05;2.35;;;4.20;99.90;;;;;;5380454;26;20007;-79
2024/04/18 06:00:57;;;;;;;6.85;2.17;;;4.30;99.90;;;;;;5367683;26;20075;-79
2024/04/18 06:03:24;;;;;;;9.32;2.45;;;4.40;99.90;;;;;;5377405;26;20073;-79
2024/04/18 06:05:50;;;;;;;8.25;2.08;;;4.50;99.90;;;;;;5374330;26;20373;-79
2024/04/18 06:08:15;;;;;;;6.95;2.33;;;4.60;99.90;;;;;;5374707;26;20018;-78
2024/04/18 06:10:42;;;;;;;8.90;2.08;;;4.70;99.90;;;;;;5379742;26;20007;-79
2024/04/18 06:13:08;;;;;;;7.18;2.33;;;4.80;99.90;;;;;;5380655;26;19996;-80
2024/04/18 06:15:41;;;;;;;4.60;1.60;;;4.90;99.90;;;;;;5376685;26;20008;-79
2024/04/18 06:18:06;;;;;;;5.97;1.90;;;5.00;99.90;;;;;;5339911;26;20011;-79
2024/04/18 06:20:37;;;;;;;6.72;1.80;;;5.20;99.90;;;;;;5377686;26;20008;-79
2024/04/18 06:23:03;;;;;;;7.65;2.17;;;5.30;99.90;;;;;;5375487;26;20000;-79
2024/04/18 06:25:30;;;;;;;5.63;1.95;;;5.40;99.90;;;;;;5379483;26;20031;-81
2024/04/18 06:27:56;;;;;;;5.43;1.40;;;5.50;99.90;;;;;;5376884;26;20058;-81
2024/04/18 06:30:22;;;;;;;5.55;1.95;;;5.60;99.90;;;;;;5373981;26;20008;-80
2024/04/18 06:32:47;;;;;;;5.20;1.77;;;5.70;99.90;;;;;;5378560;26;20472;-81
2024/04/18 06:35:13;;;;;;;7.68;1.52;;;5.80;99.90;;;;;;5376723;26;20014;-81
2024/04/18 06:37:39;;;;;;;8.90;2.47;;;5.90;99.90;;;;;;5368252;26;20000;-80
2024/04/18 06:40:04;;;;;;;7.53;2.15;;;6.00;99.90;;;;;;5376378;26;20453;-81
2024/04/18 06:42:30;;;;;;;4.40;1.73;;;6.10;99.90;;;;;;5376908;26;20004;-81
2024/04/18 06:44:55;;;;;;;4.95;1.20;;;6.20;99.90;;;;;;5378751;26;20019;-81
2024/04/18 06:47:21;;;;;;;8.23;2.42;;;6.30;99.90;;;;;;5365338;26;19996;-81
2024/04/18 06:49:47;;;;;;;6.88;1.80;;;6.40;99.90;;;;;;5375726;26;20432;-80
2024/04/18 06:52:12;;;;;;;7.70;1.65;;;6.50;99.90;;;;;;5375794;26;20447;-81
2024/04/18 06:54:38;;;;;;;5.25;1.65;;;6.60;99.90;;;;;;5380224;26;20004;-81
2024/04/18 06:57:04;;;;;;;4.70;1.58;;;6.70;99.90;;;;;;5341608;26;20011;-81
2024/04/18 06:59:29;;;;;;;7.20;2.10;;;6.80;99.90;;;;;;5364191;26;20005;-81
2024/04/18 07:01:55;;;;;;;6.00;2.67;;;6.90;99.90;;;;;;5374501;26;20449;-81
2024/04/18 07:04:21;;;;;;;4.07;1.75;;;7.00;99.90;;;;;;5379670;26;20016;-81
2024/04/18 07:06:46;;;;;;;9.55;2.15;;;7.00;99.90;;;;;;5379182;26;20000;-81
2024/04/18 07:09:12;;;;;;;7.60;1.70;;;7.00;99.90;;;;;;5372543;26;20435;-80
2024/04/18 07:11:38;;;;;;;5.28;1.65;;;7.10;99.90;;;;;;5371745;26;20000;-81
2024/04/18 07:14:03;;;;;;;5.93;1.45;;;7.10;99.90;;;;;;5364365;26;20024;-82
2024/04/18 07:16:29;;;;;;;5.95;1.15;;;7.20;99.90;;;;;;5379075;26;20007;-82
2024/04/18 07:18:56;;;;;;;7.97;1.00;;;7.20;99.90;;;;;;5346024;26;20019;-82
2024/04/18 07:21:21;;;;;;;7.15;1.27;;;7.30;99.90;;;;;;5377304;26;20542;-82
2024/04/18 07:23:47;;;;;;;4.25;0.80;;;7.40;99.90;;;;;;5378932;26;20462;-82
2024/04/18 07:26:12;;;;;;;6.88;1.52;;;7.50;99.90;;;;;;5377093;26;20340;-82
2024/04/18 07:28:38;;;;;;;3.33;0.60;;;7.60;99.90;;;;;;5377741;26;20344;-81
2024/04/18 07:31:03;;;;;;;2.95;0.70;;;7.60;99.90;;;;;;5375549;26;20015;-80
2024/04/18 07:33:30;;;;;;;5.10;0.60;;;7.70;99.90;;;;;;5376929;26;20005;-82
2024/04/18 07:35:58;;;;;;;2.83;0.65;;;7.80;99.90;;;;;;5375692;26;20661;-80
2024/04/18 07:38:23;;;;;;;3.92;0.50;;;7.90;99.90;;;;;;5377165;26;20011;-79
2024/04/18 07:40:49;;;;;;;6.00;1.15;;;8.00;99.90;;;;;;5375550;26;19996;-80
2024/04/18 07:43:15;;;;;;;3.20;0.50;;;8.10;99.90;;;;;;5378890;26;20000;-79
2024/04/18 07:45:41;;;;;;;2.92;0.55;;;8.20;99.90;;;;;;5379237;26;19996;-80
2024/04/18 07:48:07;;;;;;;4.55;0.50;;;8.30;99.90;;;;;;5377140;26;20334;-80
2024/04/18 07:50:33;;;;;;;7.22;0.70;;;8.40;99.90;;;;;;5377793;26;20000;-80
2024/04/18 07:52:59;;;;;;;2.83;0.52;;;8.50;99.90;;;;;;5377747;26;20007;-79
2024/04/18 07:55:25;;;;;;;2.30;0.50;;;8.70;99.90;;;;;;5375984;26;20014;-81
2024/04/18 07:57:51;;;;;;;2.88;0.50;;;9.00;99.90;;;;;;5377539;26;20344;-81
2024/04/18 08:00:17;;;;;;;4.05;0.45;;;9.30;99.90;;;;;;5375008;26;20429;-80
2024/04/18 08:02:43;;;;;;;3.28;0.30;;;9.40;99.90;;;;;;5378639;26;20081;-80
2024/04/18 08:05:12;;;;;;;2.05;0.40;;;9.40;99.90;;;;;;5378895;26;20000;-79
2024/04/18 08:07:38;;;;;;;5.22;0.50;;;9.50;99.90;;;;;;5370157;26;20478;-79
2024/04/18 08:10:04;;;;;;;3.28;0.40;;;9.40;99.90;;;;;;5369600;26;20004;-78
2024/04/18 08:12:30;;;;;;;6.20;0.50;;;9.40;99.90;;;;;;5380262;26;20047;-77
2024/04/18 08:14:55;;;;;;;3.25;0.50;;;9.30;99.90;;;;;;5318469;26;19997;-78
2024/04/18 08:17:21;;;;;;;3.55;0.40;;;9.10;99.90;;;;;;5373854;26;20008;-80
2024/04/18 08:19:47;;;;;;;3.90;0.40;;;9.00;99.90;;;;;;5383035;26;20000;-80
2024/04/18 08:22:12;;;;;;;1.83;0.50;;;9.00;99.90;;;;;;5378782;26;20000;-81
2024/04/18 08:24:38;;;;;;;1.60;0.25;;;9.10;99.90;;;;;;5356649;26;20023;-81
2024/04/18 08:27:04;;;;;;;3.38;0.20;;;9.30;99.90;;;;;;5382141;26;20073;-79
2024/04/18 08:29:29;;;;;;;2.72;0.20;;;9.60;99.90;;;;;;5382706;26;20004;-80
2024/04/18 08:31:55;;;;;;;0.80;0.03;;;9.70;99.90;;;;;;5351337;26;20432;-79
2024/04/18 08:34:21;;;;;;;0.45;0.10;;;9.80;99.90;;;;;;5371869;26;20468;-79
2024/04/18 08:36:46;;;;;;;0.98;0.10;;;9.80;99.90;;;;;;5374367;26;19992;-79
2024/04/18 08:39:14;;;;;;;1.35;0.10;;;9.90;99.90;;;;;;5379508;26;20008;-81
2024/04/18 08:41:42;;;;;;;1.48;0.10;;;9.90;99.90;;;;;;5367432;26;20000;-81
2024/04/18 08:44:08;;;;;;;0.98;0.15;;;10.00;99.90;;;;;;5383710;26;20000;-81
2024/04/18 08:46:38;;;;;;;1.63;0.10;;;9.90;99.90;;;;;;5382713;26;20008;-81
2024/04/18 08:49:06;;;;;;;1.65;0.10;;;10.00;99.90;;;;;;5380633;26;20000;-79
2024/04/18 08:51:36;;;;;;;0.93;0.10;;;10.00;99.90;;;;;;5379474;26;20484;-78
2024/04/18 08:54:05;;;;;;;1.02;0.20;;;10.00;99.90;;;;;;5382615;26;19999;-78
2024/04/18 08:56:35;;;;;;;1.15;0.10;;;10.10;99.90;;;;;;5382335;26;20007;-77
2024/04/18 08:59:01;;;;;;;2.75;0.20;;;10.10;99.90;;;;;;5372472;26;20011;-78
2024/04/18 09:01:27;;;;;;;1.00;0.20;;;10.20;99.90;;;;;;5381225;26;20344;-79
2024/04/18 09:03:57;;;;;;;4.13;0.40;;;10.30;99.90;;;;;;5382110;26;20000;-78
2024/04/18 09:06:23;;;;;;;1.02;0.30;;;10.40;99.90;;;;;;5382190;26;20012;-78
2024/04/18 09:08:50;;;;;;;2.47;0.20;;;10.50;99.90;;;;;;5381923;26;20036;-78
2024/04/18 09:11:16;;;;;;;2.20;0.20;;;10.50;99.90;;;;;;5382403;26;20051;-78
2024/04/18 09:13:43;;;;;;;2.65;0.30;;;10.50;99.90;;;;;;5367215;26;20033;-78
2024/04/18 09:16:08;;;;;;;1.20;0.20;;;10.40;99.90;;;;;;5370833;26;20000;-78
2024/04/18 09:18:34;;;;;;;1.27;0.20;;;10.40;99.90;;;;;;5379183;26;20007;-78
2024/04/18 09:21:00;;;;;;;0.77;0.20;;;10.50;99.90;;;;;;5371868;26;20016;-78
2024/04/18 09:23:26;;;;;;;0.55;0.20;;;10.60;99.90;;;;;;5380830;26;20016;-78
2024/04/18 09:25:54;;;;;;;0.40;0.10;;;10.70;99.90;;;;;;5351756;26;20000;-78
2024/04/18 09:28:20;;;;;;;0.63;0.13;;;10.80;99.90;;;;;;5381731;26;20077;-78
2024/04/18 09:30:54;;;;;;;0.80;0.20;;;10.90;99.90;;;;;;5383078;26;20012;-78
2024/04/18 09:33:21;;;;;;;1.75;0.20;;;10.90;99.90;;;;;;5381467;26;20016;-78
2024/04/18 09:35:49;;;;;;;0.75;0.13;;;11.00;99.90;;;;;;5370294;26;20519;-78
2024/04/18 09:38:17;;;;;;;1.13;0.25;;;11.00;99.90;;;;;;5380964;26;20019;-78
2024/04/18 09:40:55;;;;;;;1.80;0.20;;;10.80;99.90;;;;;;5382545;26;19996;-78
2024/04/18 09:43:30;;;;;;;2.63;0.30;;;10.60;99.90;;;;;;5382039;26;20015;-78
2024/04/18 09:46:06;;;;;;;1.08;0.20;;;10.50;99.90;;;;;;5376937;26;20004;-78
2024/04/18 09:48:32;;;;;;;1.75;0.25;;;10.60;99.90;;;;;;5380016;26;20032;-78
2024/04/18 09:50:59;;;;;;;2.13;0.22;;;10.60;99.90;;;;;;5382461;26;20004;-78
2024/04/18 09:53:24;;;;;;;1.10;0.20;;;10.70;99.90;;;;;;5376881;26;20007;-78
2024/04/18 09:55:51;;;;;;;1.00;0.20;;;10.90;99.90;;;;;;5380529;26;20000;-78
2024/04/18 09:58:22;;;;;;;1.38;0.20;;;10.90;99.90;;;;;;5379678;26;20008;-79
2024/04/18 10:00:48;;;;;;;1.17;0.20;;;11.10;99.90;;;;;;5385102;26;19992;-78
2024/04/18 10:03:15;;;;;;;3.67;0.20;;;11.30;99.90;;;;;;5402956;26;20323;-78
2024/04/18 10:05:48;;;;;;;3.80;0.15;;;11.40;99.90;;;;;;5385773;26;20019;-78
2024/04/18 10:08:18;;;;;;;1.33;0.20;;;11.50;99.90;;;;;;5397138;26;20324;-79
2024/04/18 10:10:45;;;;;;;1.08;0.20;;;11.60;99.90;;;;;;5373653;26;20000;-79
2024/04/18 10:13:11;;;;;;;1.00;0.10;;;11.70;99.90;;;;;;5379979;26;20455;-79
2024/04/18 10:15:36;;;;;;;0.93;0.13;;;11.80;99.90;;;;;;5353298;26;20008;-78
2024/04/18 10:18:15;;;;;;;1.95;0.10;;;11.90;99.90;;;;;;5348150;26;20020;-78
2024/04/18 10:20:42;;;;;;;0.85;0.10;;;11.90;99.90;;;;;;5376981;26;20348;-79
2024/04/18 10:23:13;;;;;;;1.25;0.40;;;11.80;99.90;;;;;;5381235;26;20089;-78
2024/04/18 10:25:43;;;;;;;2.20;0.10;;;11.70;99.90;;;;;;5376299;26;19996;-78
2024/04/18 10:28:23;;;;;;;0.68;0.10;;;11.80;99.90;;;;;;5378599;26;19996;-78
2024/04/18 10:30:49;;;;;;;1.25;0.00;;;11.80;99.90;;;;;;5381264;26;20000;-77
2024/04/18 10:33:15;;;;;;;1.27;0.03;;;11.80;99.90;;;;;;5363237;26;20008;-78
2024/04/18 10:35:41;;;;;;;0.45;0.05;;;11.90;99.90;;;;;;5375518;26;20000;-78
2024/04/18 10:38:07;;;;;;;1.00;0.10;;;12.20;99.90;;;;;;5376314;26;20015;-78
2024/04/18 10:40:33;;;;;;;0.75;0.20;;;12.40;99.90;;;;;;5377255;26;19996;-78
2024/04/18 10:43:12;;;;;;;4.10;0.20;;;12.50;99.90;;;;;;5373225;26;20000;-78
2024/04/18 10:45:39;;;;;;;1.67;0.25;;;12.60;99.30;;;;;;5379594;26;20000;-78
2024/04/18 10:48:05;;;;;;;1.27;0.13;;;12.60;99.80;;;;;;5372713;26;20078;-78
2024/04/18 10:50:34;;;;;;;2.65;0.20;;;12.50;99.60;;;;;;5371836;26;20407;-79
2024/04/18 10:53:03;;;;;;;2.70;0.22;;;12.20;99.70;;;;;;5375596;26;19996;-79
2024/04/18 10:55:29;;;;;;;3.70;0.20;;;11.90;99.90;;;;;;5374026;26;20012;-79
2024/04/18 10:57:55;;;;;;;1.00;0.10;;;11.70;99.90;;;;;;5381853;26;20000;-79
2024/04/18 11:00:21;;;;;;;4.32;0.85;;;11.60;99.90;;;;;;5381580;26;20011;-78
2024/04/18 11:02:47;;;;;;;1.20;0.10;;;11.60;99.90;;;;;;5378936;26;20000;-79
2024/04/18 11:05:13;;;;;;;3.50;0.20;;;11.60;99.90;;;;;;5379781;26;20008;-79
2024/04/18 11:07:39;;;;;;;1.90;0.10;;;11.60;99.90;;;;;;5369368;26;20039;-79
2024/04/18 11:10:05;;;;;;;1.13;0.20;;;11.70;99.90;;;;;;5380753;26;19996;-79
2024/04/18 11:12:31;;;;;;;1.67;0.10;;;11.70;99.90;;;;;;5379867;26;20019;-79
2024/04/18 11:14:57;;;;;;;3.50;0.10;;;11.70;99.90;;;;;;5376817;26;20004;-79
2024/04/18 11:17:22;;;;;;;0.45;0.10;;;11.70;99.90;;;;;;5371358;26;20391;-79
2024/04/18 11:19:48;;;;;;;1.23;0.10;;;11.70;99.90;;;;;;5376962;26;19996;-81
2024/04/18 11:22:14;;;;;;;1.73;0.20;;;11.70;99.90;;;;;;5367667;26;19997;-79
2024/04/18 11:24:40;;;;;;;2.38;0.20;;;11.80;99.30;;;;;;5364273;26;20016;-79
2024/04/18 11:27:07;;;;;;;1.00;0.10;;;11.80;99.20;;;;;;5360784;26;20004;-79
2024/04/18 11:29:33;;;;;;;3.50;0.20;;;11.90;99.30;;;;;;5379469;26;20102;-79
2024/04/18 11:32:12;;;;;;;1.25;0.20;;;12.20;99.20;;;;;;5360590;26;20013;-79
2024/04/18 11:34:38;;;;;;;2.15;0.20;;;12.40;97.90;;;;;;5373456;26;20432;-79
2024/04/18 11:37:07;;;;;;;3.58;0.17;;;12.40;97.70;;;;;;5378765;26;20000;-79
2024/04/18 11:39:33;;;;;;;8.65;0.63;;;12.50;96.60;;;;;;5379152;26;20336;-78
2024/04/18 11:41:59;;;;;;;1.42;0.10;;;12.60;96.90;;;;;;5377180;26;20000;-79
2024/04/18 11:44:25;;;;;;;1.98;0.10;;;12.70;95.90;;;;;;5378914;26;20004;-78
2024/04/18 11:46:53;;;;;;;0.60;0.00;;;12.70;95.50;;;;;;5375729;26;19997;-80
2024/04/18 11:49:19;;;;;;;2.50;0.20;;;12.70;95.40;;;;;;5381724;26;20364;-79
2024/04/18 11:51:45;;;;;;;0.95;0.10;;;12.80;94.60;;;;;;5370162;26;20000;-80
2024/04/18 11:54:10;;;;;;;2.13;0.20;;;12.90;94.70;;;;;;5382426;26;20004;-79
2024/04/18 11:56:36;;;;;;;2.90;0.10;;;13.00;94.50;;;;;;5383155;26;20008;-79
2024/04/18 11:59:02;;;;;;;1.10;0.40;;;13.10;93.00;;;;;;5382773;26;20073;-79
2024/04/18 12:01:29;;;;;;;0.80;0.20;;;13.10;93.00;;;;;;5381938;26;20350;-79
2024/04/18 12:03:54;;;;;;;1.05;0.10;;;13.20;91.90;;;;;;5383081;26;19992;-80
2024/04/18 12:06:20;;;;;;;0.30;0.00;;;13.20;89.80;;;;;;5379724;26;20004;-79
2024/04/18 12:08:46;;;;;;;3.00;0.20;;;13.20;90.40;;;;;;5380187;26;20010;-79
2024/04/18 12:11:11;;;;;;;0.98;0.10;;;13.20;90.00;;;;;;5372013;26;20349;-80
2024/04/18 12:13:37;;;;;;;1.48;0.10;;;13.30;90.00;;;;;;5382186;26;20012;-79
2024/04/18 12:16:03;;;;;;;1.90;0.10;;;13.40;89.60;;;;;;5378884;26;20000;-79
2024/04/18 12:18:28;;;;;;;2.05;0.20;;;13.50;88.20;;;;;;5380569;26;20069;-80
2024/04/18 12:20:54;;;;;;;0.70;0.10;;;13.70;87.40;;;;;;5373666;26;20016;-79
2024/04/18 12:23:20;;;;;;;2.97;0.30;;;13.80;86.70;;;;;;5374201;26;20011;-80
2024/04/18 12:25:45;;;;;;;1.05;0.20;;;13.70;83.70;;;;;;5381391;26;20551;-79
2024/04/18 12:28:11;;;;;;;1.55;0.20;;;13.50;83.20;;;;;;5378661;26;20329;-79
2024/04/18 12:30:37;;;;;;;2.10;0.30;;;13.20;83.50;;;;;;5336070;26;20561;-79
2024/04/18 12:33:02;;;;;;;1.92;0.20;;;12.90;85.00;;;;;;5379972;26;19996;-79
2024/04/18 12:35:28;;;;;;;2.83;0.10;;;12.80;86.60;;;;;;5365959;26;20015;-79
2024/04/18 12:37:55;;;;;;;6.35;0.30;;;12.70;87.30;;;;;;5360269;26;20078;-79
2024/04/18 12:40:21;;;;;;;3.38;0.20;;;12.60;88.10;;;;;;5371898;26;20619;-79
2024/04/18 12:42:47;;;;;;;4.85;0.30;;;12.50;88.70;;;;;;5375109;26;20000;-79
2024/04/18 12:45:12;;;;;;;1.17;0.20;;;12.60;89.40;;;;;;5376512;26;19996;-79
2024/04/18 12:47:38;;;;;;;2.80;0.57;;;12.60;89.20;;;;;;5371904;26;20023;-79
2024/04/18 12:50:04;;;;;;;6.13;0.30;;;12.60;90.30;;;;;;5377237;26;20051;-79